Skip Navigation Links
NOAA logo - Click to go to the NOAA homepage
NOAA's National Weather Service
Alaska Aviation Weather Unit
  NWS logo - Click to go to the NWS homepage
Left Navbar Graphic     21 AKDT = 05 GMT

   
NOAA is celebrating 200 years of science, service, and stewardship. Visit the NOAA 200th celebration Web site to learn more.
USA.gov is the U.S. Government's official Web portal to all Federal, state and local government Web resources and services.
Facebook
NWS on Facebook

AAWU Home :: Display TAF Add Bookmark
TAF PAJN 262340Z 2700/2724 25006KT P6SM FEW060 BKN080
     FM270300 12008KT P6SM BKN100
     FM270600 11010KT P6SM VCSH OVC060
     FM270800 11012KT P6SM -RA OVC035
     FM271700 10012KT P6SM VCSH BKN045
     FM272000 10015KT P6SM -RA OVC045=
METAR PAJN 262353Z 22008KT 10SM FEW065 BKN080 OVC100 13/02 A2949=

METAR PAJN 270053Z 22007KT 10SM SCT065 BKN080 OVC095 13/02 A2949=

METAR PAJN 270153Z 27003KT 10SM FEW075 BKN110 BKN150 13/02 A2949=

METAR PAJN 270253Z VRB05KT 10SM BKN080 BKN100 12/03 A2951=

METAR PAJN 270353Z 12015KT 10SM FEW065 BKN080 BKN100 11/04 A2953=

METAR PAJN 270453Z 12010KT 10SM BKN050 BKN065 OVC090 10/04 A2954 RMK AO2
     SLP004 VIRGA SW-W T01000044=


NOAA's National Weather Service
Alaska Aviation Weather Unit
6930 Sand Lake Road
Anchorage, AK 99502-1845
Disclaimer
Credits
Glossary
Privacy Policy
About Us
Career Opportunities
Contact AAWU Internet Services Site last modified: April, 17th 2012